sensor_id;sensor_type;location;lat;lon;timestamp;pressure;altitude;pressure_sealevel;temperature;humidity
55171;BME280;41060;47.510;8.680;2023-07-13T00:00:48;97132.28;;;22.07;55.78
55171;BME280;41060;47.510;8.680;2023-07-13T00:03:14;97120.44;;;22.29;54.88
55171;BME280;41060;47.510;8.680;2023-07-13T00:05:43;97125.69;;;22.09;53.23
55171;BME280;41060;47.510;8.680;2023-07-13T00:08:10;97123.78;;;22.31;53.97
55171;BME280;41060;47.510;8.680;2023-07-13T00:10:40;97116.44;;;22.25;53.88
55171;BME280;41060;47.510;8.680;2023-07-13T00:13:11;97120.88;;;22.54;53.39
55171;BME280;41060;47.510;8.680;2023-07-13T00:15:40;97113.31;;;22.77;52.69
55171;BME280;41060;47.510;8.680;2023-07-13T00:18:06;97112.31;;;22.50;51.70
55171;BME280;41060;47.510;8.680;2023-07-13T00:20:33;97104.41;;;22.21;53.02
55171;BME280;41060;47.510;8.680;2023-07-13T00:23:02;97106.16;;;21.86;52.58
55171;BME280;41060;47.510;8.680;2023-07-13T00:25:28;97091.06;;;21.49;53.32
55171;BME280;41060;47.510;8.680;2023-07-13T00:27:55;97104.16;;;21.73;54.50
55171;BME280;41060;47.510;8.680;2023-07-13T00:30:22;97095.34;;;21.79;53.07
55171;BME280;41060;47.510;8.680;2023-07-13T00:32:51;97095.97;;;22.03;53.84
55171;BME280;41060;47.510;8.680;2023-07-13T00:35:18;97094.31;;;22.30;53.60
55171;BME280;41060;47.510;8.680;2023-07-13T00:37:47;97095.44;;;22.42;53.30
55171;BME280;41060;47.510;8.680;2023-07-13T00:40:16;97090.59;;;22.58;53.35
55171;BME280;41060;47.510;8.680;2023-07-13T00:42:43;97096.03;;;22.65;52.86
55171;BME280;41060;47.510;8.680;2023-07-13T00:48:11;97095.19;;;22.64;52.12
55171;BME280;41060;47.510;8.680;2023-07-13T00:50:38;97092.56;;;22.43;51.66
55171;BME280;41060;47.510;8.680;2023-07-13T00:53:05;97090.03;;;22.14;52.69
55171;BME280;41060;47.510;8.680;2023-07-13T00:55:34;97086.81;;;22.04;51.95
55171;BME280;41060;47.510;8.680;2023-07-13T00:58:01;97087.59;;;21.98;52.26
55171;BME280;41060;47.510;8.680;2023-07-13T01:00:35;97098.63;;;21.60;52.33
55171;BME280;41060;47.510;8.680;2023-07-13T01:03:04;97100.91;;;21.42;54.17
55171;BME280;41060;47.510;8.680;2023-07-13T01:05:32;97091.53;;;21.74;54.35
55171;BME280;41060;47.510;8.680;2023-07-13T01:08:01;97086.19;;;22.02;53.70
55171;BME280;41060;47.510;8.680;2023-07-13T01:10:29;97090.13;;;22.27;52.88
55171;BME280;41060;47.510;8.680;2023-07-13T01:13:05;97090.53;;;22.24;52.54
55171;BME280;41060;47.510;8.680;2023-07-13T01:15:38;97078.44;;;21.92;53.12
55171;BME280;41060;47.510;8.680;2023-07-13T01:18:07;97083.97;;;21.84;53.57
55171;BME280;41060;47.510;8.680;2023-07-13T01:20:35;97081.97;;;21.93;52.93
55171;BME280;41060;47.510;8.680;2023-07-13T01:23:05;97086.44;;;22.07;53.01
55171;BME280;41060;47.510;8.680;2023-07-13T01:25:33;97092.91;;;22.12;53.11
55171;BME280;41060;47.510;8.680;2023-07-13T01:28:01;97084.03;;;22.18;53.25
55171;BME280;41060;47.510;8.680;2023-07-13T01:30:28;97078.53;;;22.33;53.00
55171;BME280;41060;47.510;8.680;2023-07-13T01:32:54;97089.88;;;22.43;52.62
55171;BME280;41060;47.510;8.680;2023-07-13T01:35:22;97087.47;;;22.34;52.89
55171;BME280;41060;47.510;8.680;2023-07-13T01:37:50;97102.50;;;21.94;54.37
55171;BME280;41060;47.510;8.680;2023-07-13T01:40:18;97100.84;;;21.93;53.70
55171;BME280;41060;47.510;8.680;2023-07-13T01:42:46;97096.06;;;21.73;54.02
55171;BME280;41060;47.510;8.680;2023-07-13T01:45:12;97103.63;;;21.42;55.74
55171;BME280;41060;47.510;8.680;2023-07-13T01:47:39;97105.59;;;21.33;56.10
55171;BME280;41060;47.510;8.680;2023-07-13T01:50:07;97111.72;;;21.27;56.02
55171;BME280;41060;47.510;8.680;2023-07-13T01:52:34;97111.22;;;21.38;55.86
55171;BME280;41060;47.510;8.680;2023-07-13T01:55:03;97069.63;;;21.41;55.27
55171;BME280;41060;47.510;8.680;2023-07-13T01:57:32;97108.88;;;21.86;54.39
55171;BME280;41060;47.510;8.680;2023-07-13T01:59:58;97115.25;;;22.06;53.53
55171;BME280;41060;47.510;8.680;2023-07-13T02:02:25;97116.00;;;21.94;53.80
55171;BME280;41060;47.510;8.680;2023-07-13T02:04:52;97110.66;;;22.00;54.03
55171;BME280;41060;47.510;8.680;2023-07-13T02:07:18;97115.81;;;21.59;54.46
55171;BME280;41060;47.510;8.680;2023-07-13T02:09:45;97111.84;;;21.55;54.62
55171;BME280;41060;47.510;8.680;2023-07-13T02:12:12;97113.31;;;21.58;54.44
55171;BME280;41060;47.510;8.680;2023-07-13T02:14:40;97113.63;;;21.69;54.62
55171;BME280;41060;47.510;8.680;2023-07-13T02:17:09;97115.94;;;21.87;53.94
55171;BME280;41060;47.510;8.680;2023-07-13T02:19:36;97118.78;;;22.07;53.50
55171;BME280;41060;47.510;8.680;2023-07-13T02:22:05;97111.88;;;21.98;53.38
55171;BME280;41060;47.510;8.680;2023-07-13T02:24:32;97111.09;;;22.04;53.40
55171;BME280;41060;47.510;8.680;2023-07-13T02:26:59;97114.94;;;22.16;52.97
55171;BME280;41060;47.510;8.680;2023-07-13T02:29:25;97110.06;;;22.33;52.52
55171;BME280;41060;47.510;8.680;2023-07-13T02:31:53;97115.28;;;22.34;52.09
55171;BME280;41060;47.510;8.680;2023-07-13T02:34:20;97120.56;;;22.42;52.67
55171;BME280;41060;47.510;8.680;2023-07-13T02:36:46;97106.50;;;22.25;52.32
55171;BME280;41060;47.510;8.680;2023-07-13T02:39:16;97084.91;;;21.98;51.86
55171;BME280;41060;47.510;8.680;2023-07-13T02:41:43;97119.63;;;22.07;52.38
55171;BME280;41060;47.510;8.680;2023-07-13T02:44:12;97111.59;;;22.14;53.22
55171;BME280;41060;47.510;8.680;2023-07-13T02:46:39;97112.34;;;22.29;52.31
55171;BME280;41060;47.510;8.680;2023-07-13T02:49:07;97111.56;;;22.35;52.43
55171;BME280;41060;47.510;8.680;2023-07-13T02:51:34;97115.53;;;22.39;52.42
55171;BME280;41060;47.510;8.680;2023-07-13T02:54:00;97115.03;;;22.50;51.68
55171;BME280;41060;47.510;8.680;2023-07-13T02:56:29;97111.34;;;22.58;51.90
55171;BME280;41060;47.510;8.680;2023-07-13T02:58:56;97093.66;;;22.55;51.51
55171;BME280;41060;47.510;8.680;2023-07-13T03:01:24;97097.03;;;22.64;51.86
55171;BME280;41060;47.510;8.680;2023-07-13T03:03:52;97102.06;;;22.67;51.61
55171;BME280;41060;47.510;8.680;2023-07-13T03:06:20;97100.63;;;22.71;51.92
55171;BME280;41060;47.510;8.680;2023-07-13T03:08:48;97103.56;;;22.76;51.76
55171;BME280;41060;47.510;8.680;2023-07-13T03:11:18;97099.63;;;22.79;51.82
55171;BME280;41060;47.510;8.680;2023-07-13T03:13:45;97104.84;;;22.80;51.53
55171;BME280;41060;47.510;8.680;2023-07-13T03:16:12;97110.59;;;22.43;52.74
55171;BME280;41060;47.510;8.680;2023-07-13T03:18:40;97110.25;;;22.03;53.45
55171;BME280;41060;47.510;8.680;2023-07-13T03:21:06;97112.91;;;21.75;54.50
55171;BME280;41060;47.510;8.680;2023-07-13T03:23:34;97109.03;;;21.63;54.75
55171;BME280;41060;47.510;8.680;2023-07-13T03:26:03;97112.81;;;21.33;55.88
55171;BME280;41060;47.510;8.680;2023-07-13T03:28:30;97121.50;;;21.28;56.35
55171;BME280;41060;47.510;8.680;2023-07-13T03:31:02;97113.31;;;21.07;56.49
55171;BME280;41060;47.510;8.680;2023-07-13T03:33:30;97118.91;;;21.05;56.93
55171;BME280;41060;47.510;8.680;2023-07-13T03:35:57;97124.75;;;21.09;57.05
55171;BME280;41060;47.510;8.680;2023-07-13T03:38:24;97126.66;;;21.30;56.79
55171;BME280;41060;47.510;8.680;2023-07-13T03:40:53;97124.47;;;21.55;55.76
55171;BME280;41060;47.510;8.680;2023-07-13T03:43:19;97126.03;;;21.64;55.78
55171;BME280;41060;47.510;8.680;2023-07-13T03:45:46;97125.84;;;21.65;55.37
55171;BME280;41060;47.510;8.680;2023-07-13T03:48:13;97121.88;;;21.82;54.81
55171;BME280;41060;47.510;8.680;2023-07-13T03:50:40;97129.56;;;21.64;55.71
55171;BME280;41060;47.510;8.680;2023-07-13T03:53:07;97125.19;;;21.63;55.74
55171;BME280;41060;47.510;8.680;2023-07-13T03:55:34;97123.50;;;21.77;55.63
55171;BME280;41060;47.510;8.680;2023-07-13T03:58:27;97123.75;;;21.67;55.69
55171;BME280;41060;47.510;8.680;2023-07-13T04:00:57;97122.59;;;21.70;55.59
55171;BME280;41060;47.510;8.680;2023-07-13T04:03:23;97127.09;;;21.84;55.33
55171;BME280;41060;47.510;8.680;2023-07-13T04:05:50;97120.81;;;21.62;56.31
55171;BME280;41060;47.510;8.680;2023-07-13T04:08:17;97128.59;;;21.51;56.54
55171;BME280;41060;47.510;8.680;2023-07-13T04:10:44;97134.28;;;21.62;56.37
55171;BME280;41060;47.510;8.680;2023-07-13T04:13:11;97139.50;;;21.64;56.06
55171;BME280;41060;47.510;8.680;2023-07-13T04:15:39;97143.03;;;21.64;56.37
55171;BME280;41060;47.510;8.680;2023-07-13T04:18:06;97143.66;;;21.66;56.46
55171;BME280;41060;47.510;8.680;2023-07-13T04:20:32;97140.38;;;21.85;55.96
55171;BME280;41060;47.510;8.680;2023-07-13T04:22:59;97145.75;;;22.07;55.36
55171;BME280;41060;47.510;8.680;2023-07-13T04:25:26;97146.72;;;22.20;54.98
55171;BME280;41060;47.510;8.680;2023-07-13T04:27:53;97148.09;;;22.38;54.61
55171;BME280;41060;47.510;8.680;2023-07-13T04:30:22;97150.47;;;22.47;54.37
55171;BME280;41060;47.510;8.680;2023-07-13T04:32:50;97128.09;;;22.47;53.60
55171;BME280;41060;47.510;8.680;2023-07-13T04:35:17;97145.81;;;22.62;53.35
55171;BME280;41060;47.510;8.680;2023-07-13T04:37:46;97153.72;;;22.64;53.14
55171;BME280;41060;47.510;8.680;2023-07-13T04:40:13;97153.91;;;22.62;53.02
55171;BME280;41060;47.510;8.680;2023-07-13T04:42:39;97148.28;;;22.57;53.29
55171;BME280;41060;47.510;8.680;2023-07-13T04:45:07;97165.19;;;22.73;53.03
55171;BME280;41060;47.510;8.680;2023-07-13T04:47:35;97162.13;;;22.76;53.04
55171;BME280;41060;47.510;8.680;2023-07-13T04:50:01;97147.16;;;22.73;53.01
55171;BME280;41060;47.510;8.680;2023-07-13T04:52:31;97165.47;;;22.84;52.65
55171;BME280;41060;47.510;8.680;2023-07-13T04:54:59;97166.13;;;22.86;52.63
55171;BME280;41060;47.510;8.680;2023-07-13T04:57:25;97174.22;;;22.86;52.49
55171;BME280;41060;47.510;8.680;2023-07-13T04:59:53;97163.63;;;22.85;52.57
55171;BME280;41060;47.510;8.680;2023-07-13T05:02:20;97140.72;;;22.74;52.49
55171;BME280;41060;47.510;8.680;2023-07-13T05:04:48;97173.69;;;22.97;52.38
55171;BME280;41060;47.510;8.680;2023-07-13T05:07:15;97175.78;;;23.02;52.06
55171;BME280;41060;47.510;8.680;2023-07-13T05:09:42;97184.66;;;22.96;52.41
55171;BME280;41060;47.510;8.680;2023-07-13T05:12:09;97195.16;;;22.84;53.00
55171;BME280;41060;47.510;8.680;2023-07-13T05:14:36;97199.97;;;22.54;54.06
55171;BME280;41060;47.510;8.680;2023-07-13T05:17:03;97207.41;;;22.52;54.28
55171;BME280;41060;47.510;8.680;2023-07-13T05:19:30;97204.75;;;22.59;54.34
55171;BME280;41060;47.510;8.680;2023-07-13T05:21:58;97185.03;;;22.58;53.84
55171;BME280;41060;47.510;8.680;2023-07-13T05:24:25;97200.28;;;22.73;53.57
55171;BME280;41060;47.510;8.680;2023-07-13T05:26:52;97200.09;;;22.74;53.09
55171;BME280;41060;47.510;8.680;2023-07-13T05:29:20;97197.59;;;22.73;53.02
55171;BME280;41060;47.510;8.680;2023-07-13T05:31:46;97206.06;;;22.70;53.17
55171;BME280;41060;47.510;8.680;2023-07-13T05:34:13;97209.56;;;22.63;53.28
55171;BME280;41060;47.510;8.680;2023-07-13T05:36:41;97207.88;;;22.62;53.44
55171;BME280;41060;47.510;8.680;2023-07-13T05:39:09;97216.44;;;22.66;53.35
55171;BME280;41060;47.510;8.680;2023-07-13T05:41:37;97215.78;;;22.64;53.08
55171;BME280;41060;47.510;8.680;2023-07-13T05:44:04;97221.66;;;22.68;53.57
55171;BME280;41060;47.510;8.680;2023-07-13T05:46:31;97219.31;;;22.64;53.68
55171;BME280;41060;47.510;8.680;2023-07-13T05:49:00;97221.59;;;22.61;53.83
55171;BME280;41060;47.510;8.680;2023-07-13T05:51:27;97225.56;;;22.65;53.43
55171;BME280;41060;47.510;8.680;2023-07-13T05:53:54;97224.47;;;22.59;54.39
55171;BME280;41060;47.510;8.680;2023-07-13T05:56:22;97214.91;;;22.57;54.22
55171;BME280;41060;47.510;8.680;2023-07-13T05:58:49;97222.47;;;22.68;53.86
55171;BME280;41060;47.510;8.680;2023-07-13T06:01:16;97233.91;;;22.70;54.26
55171;BME280;41060;47.510;8.680;2023-07-13T06:03:44;97243.47;;;22.73;54.10
55171;BME280;41060;47.510;8.680;2023-07-13T06:06:11;97234.50;;;22.66;53.90
55171;BME280;41060;47.510;8.680;2023-07-13T06:08:37;97239.09;;;22.72;54.05
55171;BME280;41060;47.510;8.680;2023-07-13T06:11:06;97230.78;;;22.67;53.66
55171;BME280;41060;47.510;8.680;2023-07-13T06:13:35;97249.94;;;22.78;53.64
55171;BME280;41060;47.510;8.680;2023-07-13T06:16:02;97238.97;;;22.80;53.68
55171;BME280;41060;47.510;8.680;2023-07-13T06:18:30;97241.66;;;22.80;53.63
55171;BME280;41060;47.510;8.680;2023-07-13T06:20:59;97250.84;;;22.85;53.61
55171;BME280;41060;47.510;8.680;2023-07-13T06:23:26;97249.63;;;22.88;53.47
55171;BME280;41060;47.510;8.680;2023-07-13T06:25:52;97255.66;;;22.90;53.56
55171;BME280;41060;47.510;8.680;2023-07-13T06:28:19;97254.84;;;22.89;53.74
55171;BME280;41060;47.510;8.680;2023-07-13T06:30:47;97263.84;;;22.75;54.57
55171;BME280;41060;47.510;8.680;2023-07-13T06:33:13;97265.03;;;22.45;55.48
55171;BME280;41060;47.510;8.680;2023-07-13T06:35:41;97262.34;;;22.45;55.71
55171;BME280;41060;47.510;8.680;2023-07-13T06:38:07;97268.59;;;22.31;55.13
55171;BME280;41060;47.510;8.680;2023-07-13T06:40:34;97253.25;;;22.10;55.55
55171;BME280;41060;47.510;8.680;2023-07-13T06:43:01;97271.53;;;22.36;55.43
55171;BME280;41060;47.510;8.680;2023-07-13T06:45:27;97269.00;;;22.49;55.03
55171;BME280;41060;47.510;8.680;2023-07-13T06:47:55;97254.28;;;22.51;54.45
55171;BME280;41060;47.510;8.680;2023-07-13T06:50:22;97275.22;;;22.71;54.57
55171;BME280;41060;47.510;8.680;2023-07-13T06:52:49;97277.41;;;22.82;54.44
55171;BME280;41060;47.510;8.680;2023-07-13T06:55:15;97285.56;;;22.88;54.13
55171;BME280;41060;47.510;8.680;2023-07-13T06:57:42;97286.25;;;22.97;54.19
55171;BME280;41060;47.510;8.680;2023-07-13T07:00:10;97290.41;;;22.99;54.47
55171;BME280;41060;47.510;8.680;2023-07-13T07:02:37;97294.78;;;23.00;54.13
55171;BME280;41060;47.510;8.680;2023-07-13T07:05:06;97294.22;;;23.05;54.07
55171;BME280;41060;47.510;8.680;2023-07-13T07:07:33;97299.22;;;23.08;53.94
55171;BME280;41060;47.510;8.680;2023-07-13T07:09:59;97299.03;;;23.10;54.15
55171;BME280;41060;47.510;8.680;2023-07-13T07:12:28;97299.03;;;23.10;54.37
55171;BME280;41060;47.510;8.680;2023-07-13T07:14:55;97296.63;;;22.72;55.59
55171;BME280;41060;47.510;8.680;2023-07-13T07:17:21;97298.09;;;22.32;57.18
55171;BME280;41060;47.510;8.680;2023-07-13T07:19:49;97291.81;;;22.46;56.33
55171;BME280;41060;47.510;8.680;2023-07-13T07:22:16;97290.97;;;22.67;55.42
55171;BME280;41060;47.510;8.680;2023-07-13T07:24:43;97287.38;;;22.81;54.70
55171;BME280;41060;47.510;8.680;2023-07-13T07:27:10;97296.16;;;22.90;54.89
55171;BME280;41060;47.510;8.680;2023-07-13T07:29:36;97289.19;;;23.02;54.42
55171;BME280;41060;47.510;8.680;2023-07-13T07:32:04;97288.94;;;23.18;54.46
55171;BME280;41060;47.510;8.680;2023-07-13T07:34:31;97293.34;;;23.26;54.32
55171;BME280;41060;47.510;8.680;2023-07-13T07:36:59;97294.41;;;23.31;53.91
55171;BME280;41060;47.510;8.680;2023-07-13T07:39:27;97266.47;;;23.18;53.77
55171;BME280;41060;47.510;8.680;2023-07-13T07:41:54;97289.88;;;23.38;53.38
55171;BME280;41060;47.510;8.680;2023-07-13T07:44:21;97294.91;;;23.42;53.13
55171;BME280;41060;47.510;8.680;2023-07-13T07:46:47;97305.47;;;23.09;54.70
55171;BME280;41060;47.510;8.680;2023-07-13T07:49:15;97302.66;;;22.74;56.07
55171;BME280;41060;47.510;8.680;2023-07-13T07:51:41;97300.22;;;22.79;56.37
55171;BME280;41060;47.510;8.680;2023-07-13T07:54:08;97293.50;;;22.96;54.87
55171;BME280;41060;47.510;8.680;2023-07-13T07:56:36;97293.00;;;22.86;53.86
55171;BME280;41060;47.510;8.680;2023-07-13T07:59:03;97281.63;;;22.91;54.44
55171;BME280;41060;47.510;8.680;2023-07-13T08:01:29;97277.28;;;22.69;53.74
55171;BME280;41060;47.510;8.680;2023-07-13T08:03:56;97277.41;;;22.82;53.67
55171;BME280;41060;47.510;8.680;2023-07-13T08:06:23;97270.88;;;22.97;55.83
55171;BME280;41060;47.510;8.680;2023-07-13T08:08:50;97286.00;;;23.13;52.50
55171;BME280;41060;47.510;8.680;2023-07-13T08:11:17;97297.81;;;23.12;52.80
55171;BME280;41060;47.510;8.680;2023-07-13T08:13:45;97291.75;;;22.82;51.32
55171;BME280;41060;47.510;8.680;2023-07-13T08:16:12;97294.81;;;22.79;50.59
55171;BME280;41060;47.510;8.680;2023-07-13T08:18:39;97288.59;;;23.07;51.07
55171;BME280;41060;47.510;8.680;2023-07-13T08:21:06;97286.44;;;22.95;51.18
55171;BME280;41060;47.510;8.680;2023-07-13T08:23:33;97290.25;;;23.08;50.95
55171;BME280;41060;47.510;8.680;2023-07-13T08:26:01;97281.47;;;23.20;50.55
55171;BME280;41060;47.510;8.680;2023-07-13T08:28:28;97292.06;;;23.00;50.78
55171;BME280;41060;47.510;8.680;2023-07-13T08:31:00;97292.69;;;22.96;50.46
55171;BME280;41060;47.510;8.680;2023-07-13T08:33:27;97292.63;;;23.11;49.53
55171;BME280;41060;47.510;8.680;2023-07-13T08:35:53;97306.22;;;22.53;49.54
55171;BME280;41060;47.510;8.680;2023-07-13T08:38:22;97309.63;;;22.62;50.12
55171;BME280;41060;47.510;8.680;2023-07-13T08:40:51;97287.63;;;22.65;49.72
55171;BME280;41060;47.510;8.680;2023-07-13T08:43:25;97305.19;;;22.54;49.71
55171;BME280;41060;47.510;8.680;2023-07-13T08:46:04;97305.75;;;22.71;50.22
55171;BME280;41060;47.510;8.680;2023-07-13T08:48:36;97295.97;;;22.70;48.69
55171;BME280;41060;47.510;8.680;2023-07-13T08:51:17;97293.72;;;22.74;49.48
55171;BME280;41060;47.510;8.680;2023-07-13T08:53:49;97299.63;;;22.62;49.05
55171;BME280;41060;47.510;8.680;2023-07-13T08:56:21;97313.72;;;22.58;49.97
55171;BME280;41060;47.510;8.680;2023-07-13T08:58:51;97301.38;;;22.70;50.44
55171;BME280;41060;47.510;8.680;2023-07-13T09:01:24;97302.13;;;22.85;49.72
55171;BME280;41060;47.510;8.680;2023-07-13T09:04:01;97291.38;;;22.92;50.93
55171;BME280;41060;47.510;8.680;2023-07-13T09:06:36;97307.78;;;23.12;51.11
55171;BME280;41060;47.510;8.680;2023-07-13T09:09:10;97296.78;;;22.92;51.94
55171;BME280;41060;47.510;8.680;2023-07-13T09:11:46;97293.69;;;22.95;51.44
55171;BME280;41060;47.510;8.680;2023-07-13T09:14:41;97300.78;;;22.96;51.86
55171;BME280;41060;47.510;8.680;2023-07-13T09:17:14;97299.09;;;22.95;51.49
55171;BME280;41060;47.510;8.680;2023-07-13T09:19:43;97294.72;;;22.94;50.59
55171;BME280;41060;47.510;8.680;2023-07-13T09:22:16;97291.31;;;22.85;51.00
55171;BME280;41060;47.510;8.680;2023-07-13T09:24:52;97290.06;;;22.81;51.08
55171;BME280;41060;47.510;8.680;2023-07-13T09:27:22;97303.22;;;22.70;50.46
55171;BME280;41060;47.510;8.680;2023-07-13T09:29:54;97299.91;;;22.46;51.01
55171;BME280;41060;47.510;8.680;2023-07-13T09:32:26;97297.31;;;22.81;50.74
55171;BME280;41060;47.510;8.680;2023-07-13T09:34:54;97290.63;;;22.98;50.04
55171;BME280;41060;47.510;8.680;2023-07-13T09:37:23;97299.59;;;23.05;48.07
55171;BME280;41060;47.510;8.680;2023-07-13T09:39:55;97306.06;;;22.83;47.38
55171;BME280;41060;47.510;8.680;2023-07-13T09:42:22;97301.06;;;23.08;48.89
55171;BME280;41060;47.510;8.680;2023-07-13T09:44:53;97302.69;;;23.58;48.42
55171;BME280;41060;47.510;8.680;2023-07-13T09:47:22;97291.91;;;23.64;46.86
55171;BME280;41060;47.510;8.680;2023-07-13T09:49:56;97301.63;;;23.87;46.53
55171;BME280;41060;47.510;8.680;2023-07-13T09:52:24;97308.59;;;24.09;46.42
55171;BME280;41060;47.510;8.680;2023-07-13T09:54:53;97304.44;;;24.20;46.88
55171;BME280;41060;47.510;8.680;2023-07-13T09:57:26;97302.00;;;24.31;46.31
55171;BME280;41060;47.510;8.680;2023-07-13T09:59:55;97306.38;;;24.39;46.33
55171;BME280;41060;47.510;8.680;2023-07-13T10:02:27;97313.66;;;23.84;46.41
55171;BME280;41060;47.510;8.680;2023-07-13T10:04:58;97313.94;;;23.61;47.41
55171;BME280;41060;47.510;8.680;2023-07-13T10:07:26;97299.78;;;23.25;47.46
55171;BME280;41060;47.510;8.680;2023-07-13T10:09:53;97312.78;;;23.43;48.23
55171;BME280;41060;47.510;8.680;2023-07-13T10:12:20;97306.00;;;23.60;47.81
55171;BME280;41060;47.510;8.680;2023-07-13T10:14:50;97310.09;;;23.77;46.44
55171;BME280;41060;47.510;8.680;2023-07-13T10:17:25;97316.44;;;23.97;47.09
55171;BME280;41060;47.510;8.680;2023-07-13T10:19:53;97319.72;;;23.86;45.29
55171;BME280;41060;47.510;8.680;2023-07-13T10:22:26;97325.25;;;24.19;45.92
55171;BME280;41060;47.510;8.680;2023-07-13T10:24:54;97321.50;;;24.20;44.96
55171;BME280;41060;47.510;8.680;2023-07-13T10:27:26;97319.84;;;24.26;44.97
55171;BME280;41060;47.510;8.680;2023-07-13T10:30:01;97319.34;;;24.50;44.63
55171;BME280;41060;47.510;8.680;2023-07-13T10:32:29;97317.41;;;24.37;45.31
55171;BME280;41060;47.510;8.680;2023-07-13T10:34:57;97314.56;;;24.59;46.99
55171;BME280;41060;47.510;8.680;2023-07-13T10:37:31;97313.53;;;24.73;43.81
55171;BME280;41060;47.510;8.680;2023-07-13T10:40:05;97308.97;;;24.86;45.68
55171;BME280;41060;47.510;8.680;2023-07-13T10:42:37;97317.75;;;25.15;45.37
55171;BME280;41060;47.510;8.680;2023-07-13T10:45:14;97323.19;;;25.21;44.79
55171;BME280;41060;47.510;8.680;2023-07-13T10:47:41;97318.59;;;25.35;44.32
55171;BME280;41060;47.510;8.680;2023-07-13T10:50:15;97313.56;;;25.45;43.17
55171;BME280;41060;47.510;8.680;2023-07-13T10:52:47;97315.88;;;25.15;42.52
55171;BME280;41060;47.510;8.680;2023-07-13T10:55:36;97313.78;;;25.50;43.32
55171;BME280;41060;47.510;8.680;2023-07-13T10:58:12;97315.41;;;25.71;43.02
55171;BME280;41060;47.510;8.680;2023-07-13T11:01:03;97309.09;;;25.90;42.39
55171;BME280;41060;47.510;8.680;2023-07-13T11:03:31;97309.00;;;26.17;42.22
55171;BME280;41060;47.510;8.680;2023-07-13T11:06:08;97305.19;;;26.24;41.08
55171;BME280;41060;47.510;8.680;2023-07-13T11:08:38;97303.72;;;26.28;41.38
55171;BME280;41060;47.510;8.680;2023-07-13T11:11:36;97306.81;;;26.38;40.38
55171;BME280;41060;47.510;8.680;2023-07-13T11:14:04;97301.31;;;26.52;41.12
55171;BME280;41060;47.510;8.680;2023-07-13T11:16:35;97304.28;;;26.43;40.01
55171;BME280;41060;47.510;8.680;2023-07-13T11:22:40;97300.59;;;25.67;40.44
55171;BME280;41060;47.510;8.680;2023-07-13T11:25:26;97291.69;;;25.40;39.96
55171;BME280;41060;47.510;8.680;2023-07-13T11:28:11;97294.97;;;25.55;41.31
55171;BME280;41060;47.510;8.680;2023-07-13T11:30:41;97296.22;;;25.66;41.53
55171;BME280;41060;47.510;8.680;2023-07-13T11:33:13;97293.47;;;25.86;41.66
55171;BME280;41060;47.510;8.680;2023-07-13T11:35:52;97294.88;;;26.01;42.18
55171;BME280;41060;47.510;8.680;2023-07-13T11:38:22;97272.97;;;25.96;41.62
55171;BME280;41060;47.510;8.680;2023-07-13T11:40:54;97285.72;;;25.89;42.36
55171;BME280;41060;47.510;8.680;2023-07-13T11:43:21;97280.75;;;25.80;42.13
55171;BME280;41060;47.510;8.680;2023-07-13T11:45:50;97280.25;;;25.96;42.33
55171;BME280;41060;47.510;8.680;2023-07-13T11:48:22;97287.38;;;25.90;41.13
55171;BME280;41060;47.510;8.680;2023-07-13T11:50:51;97283.81;;;25.96;42.05
55171;BME280;41060;47.510;8.680;2023-07-13T11:53:19;97276.25;;;26.05;41.38
55171;BME280;41060;47.510;8.680;2023-07-13T11:55:47;97277.03;;;26.19;41.06
55171;BME280;41060;47.510;8.680;2023-07-13T11:58:17;97281.97;;;26.35;40.39
55171;BME280;41060;47.510;8.680;2023-07-13T12:00:46;97268.03;;;26.18;40.17
55171;BME280;41060;47.510;8.680;2023-07-13T12:03:18;97273.41;;;25.93;40.34
55171;BME280;41060;47.510;8.680;2023-07-13T12:06:00;97270.91;;;25.92;40.42
55171;BME280;41060;47.510;8.680;2023-07-13T12:08:27;97273.88;;;25.77;40.22
55171;BME280;41060;47.510;8.680;2023-07-13T12:11:04;97279.56;;;26.14;41.08
55171;BME280;41060;47.510;8.680;2023-07-13T12:13:37;97284.53;;;26.61;40.60
55171;BME280;41060;47.510;8.680;2023-07-13T12:16:15;97275.06;;;26.70;39.64
55171;BME280;41060;47.510;8.680;2023-07-13T12:18:44;97272.25;;;26.83;39.53
55171;BME280;41060;47.510;8.680;2023-07-13T12:21:19;97270.28;;;26.97;39.53
55171;BME280;41060;47.510;8.680;2023-07-13T12:23:48;97270.00;;;27.05;39.02
55171;BME280;41060;47.510;8.680;2023-07-13T12:26:17;97265.13;;;27.14;38.75
55171;BME280;41060;47.510;8.680;2023-07-13T12:28:48;97253.84;;;27.35;38.10
55171;BME280;41060;47.510;8.680;2023-07-13T12:31:24;97263.94;;;27.28;37.04
55171;BME280;41060;47.510;8.680;2023-07-13T12:33:56;97259.94;;;27.31;36.26
55171;BME280;41060;47.510;8.680;2023-07-13T12:36:23;97248.56;;;27.40;36.58
55171;BME280;41060;47.510;8.680;2023-07-13T12:38:51;97248.94;;;27.44;36.68
55171;BME280;41060;47.510;8.680;2023-07-13T12:41:17;97245.56;;;27.48;35.00
55171;BME280;41060;47.510;8.680;2023-07-13T12:43:46;97252.06;;;27.66;35.75
55171;BME280;41060;47.510;8.680;2023-07-13T12:46:18;97243.22;;;27.70;35.53
55171;BME280;41060;47.510;8.680;2023-07-13T12:48:49;97244.50;;;27.68;34.34
55171;BME280;41060;47.510;8.680;2023-07-13T12:51:21;97249.56;;;27.64;35.71
55171;BME280;41060;47.510;8.680;2023-07-13T12:53:50;97254.03;;;27.58;34.29
55171;BME280;41060;47.510;8.680;2023-07-13T12:56:22;97258.50;;;27.71;33.66
55171;BME280;41060;47.510;8.680;2023-07-13T12:58:56;97258.31;;;27.84;34.48
55171;BME280;41060;47.510;8.680;2023-07-13T13:01:26;97250.84;;;27.62;34.02
55171;BME280;41060;47.510;8.680;2023-07-13T13:03:54;97253.31;;;27.02;34.98
55171;BME280;41060;47.510;8.680;2023-07-13T13:06:23;97259.38;;;26.41;35.44
55171;BME280;41060;47.510;8.680;2023-07-13T13:08:52;97261.09;;;26.67;35.92
55171;BME280;41060;47.510;8.680;2023-07-13T13:11:21;97258.66;;;26.59;35.50
55171;BME280;41060;47.510;8.680;2023-07-13T13:13:48;97248.78;;;26.39;36.09
55171;BME280;41060;47.510;8.680;2023-07-13T13:16:21;97246.38;;;26.50;35.97